createdAt,value
2023-04-15T00:01:19.263Z,80.70
2023-04-15T00:03:47.881Z,82.00
2023-04-15T00:06:16.252Z,82.70
2023-04-15T00:08:44.204Z,82.10
2023-04-15T00:11:12.565Z,82.40
2023-04-15T00:13:41.060Z,82.20
2023-04-15T00:16:10.222Z,82.80
2023-04-15T00:18:39.841Z,84.20
2023-04-15T00:21:08.071Z,84.90
2023-04-15T00:23:36.549Z,84.70
2023-04-15T00:26:04.515Z,84.10
2023-04-15T00:28:32.648Z,84.80
2023-04-15T00:31:00.651Z,85.70
2023-04-15T00:33:28.601Z,85.60
2023-04-15T00:35:57.930Z,85.10
2023-04-15T00:38:25.874Z,84.90
2023-04-15T00:40:55.158Z,85.40
2023-04-15T00:43:23.135Z,86.20
2023-04-15T00:45:53.662Z,86.50
2023-04-15T00:48:22.388Z,86.60
2023-04-15T00:50:50.334Z,87.10
2023-04-15T00:53:19.640Z,87.30
2023-04-15T00:55:47.603Z,86.10
2023-04-15T00:58:16.120Z,85.70
2023-04-15T01:00:44.460Z,85.90
2023-04-15T01:03:12.604Z,87.10
2023-04-15T01:05:41.355Z,87.50
2023-04-15T01:08:09.806Z,87.70
2023-04-15T01:10:39.661Z,88.50
2023-04-15T01:13:07.944Z,88.70
2023-04-15T01:15:37.579Z,88.50
2023-04-15T01:18:05.998Z,88.00
2023-04-15T01:20:35.577Z,88.40
2023-04-15T01:23:03.773Z,87.50
2023-04-15T01:25:35.630Z,87.10
2023-04-15T01:28:03.937Z,87.30
2023-04-15T01:30:35.419Z,89.10
2023-04-15T01:33:03.749Z,89.70
2023-04-15T01:35:32.208Z,89.60
2023-04-15T01:38:06.158Z,89.00
2023-04-15T01:40:36.088Z,88.70
2023-04-15T01:43:04.797Z,89.20
2023-04-15T01:45:32.890Z,87.70
2023-04-15T01:48:00.887Z,87.80
2023-04-15T01:50:29.059Z,88.50
2023-04-15T01:52:57.127Z,89.20
2023-04-15T01:55:25.089Z,89.70
2023-04-15T01:57:54.392Z,89.50
2023-04-15T02:00:23.158Z,89.70
2023-04-15T02:02:51.323Z,90.10
2023-04-15T02:05:19.425Z,90.30
2023-04-15T02:07:47.474Z,90.50
2023-04-15T02:10:16.753Z,90.80
2023-04-15T02:12:45.074Z,90.90
2023-04-15T02:15:14.526Z,90.90
2023-04-15T02:17:45.952Z,90.80
2023-04-15T02:20:14.639Z,90.60
2023-04-15T02:22:42.685Z,90.30
2023-04-15T02:25:11.662Z,90.90
2023-04-15T02:27:39.601Z,91.00
2023-04-15T02:30:09.395Z,91.10
2023-04-15T02:32:39.048Z,90.90
2023-04-15T02:35:08.871Z,90.80
2023-04-15T02:37:41.688Z,90.30
2023-04-15T02:40:12.032Z,90.00
2023-04-15T02:42:40.372Z,89.90
2023-04-15T02:45:09.651Z,90.50
2023-04-15T02:47:41.468Z,90.90
2023-04-15T02:50:12.534Z,90.70
2023-04-15T02:52:41.677Z,90.50
2023-04-15T02:55:10.520Z,90.30
2023-04-15T02:57:39.236Z,90.40
2023-04-15T03:00:10.207Z,91.10
2023-04-15T03:02:40.272Z,91.20
2023-04-15T03:05:12.650Z,91.00
2023-04-15T03:07:41.373Z,90.90
2023-04-15T03:10:10.457Z,90.90
2023-04-15T03:12:38.562Z,90.70
2023-04-15T03:15:08.163Z,90.90
2023-04-15T03:17:36.205Z,90.80
2023-04-15T03:20:07.198Z,90.70
2023-04-15T03:22:35.486Z,91.00
2023-04-15T03:25:03.485Z,91.40
2023-04-15T03:27:32.081Z,90.90
2023-04-15T03:30:00.059Z,91.30
2023-04-15T03:32:28.004Z,91.80
2023-04-15T03:34:55.940Z,91.50
2023-04-15T03:37:25.566Z,91.30
2023-04-15T03:39:53.558Z,91.30
2023-04-15T03:42:21.556Z,91.40
2023-04-15T03:44:49.557Z,91.20
2023-04-15T03:47:17.509Z,91.30
2023-04-15T03:49:45.553Z,91.30
2023-04-15T03:52:13.517Z,91.50
2023-04-15T03:54:43.000Z,91.30
2023-04-15T03:57:11.208Z,91.30
2023-04-15T03:59:39.160Z,91.20
2023-04-15T04:02:07.339Z,91.20
2023-04-15T04:04:35.437Z,91.50
2023-04-15T04:07:03.423Z,91.90
2023-04-15T04:09:31.743Z,91.90
2023-04-15T04:12:01.354Z,91.20
2023-04-15T04:14:30.324Z,91.50
2023-04-15T04:16:58.347Z,91.80
2023-04-15T04:19:26.294Z,91.70
2023-04-15T04:21:54.419Z,92.20
2023-04-15T04:24:22.428Z,92.70
2023-04-15T04:26:50.791Z,93.00
2023-04-15T04:29:20.080Z,93.00
2023-04-15T04:31:48.826Z,93.00
2023-04-15T04:34:16.869Z,92.60
2023-04-15T04:36:44.833Z,92.40
2023-04-15T04:39:12.794Z,92.20
2023-04-15T04:41:41.088Z,92.00
2023-04-15T04:44:09.109Z,91.90
2023-04-15T04:46:38.402Z,92.10
2023-04-15T04:49:06.421Z,91.90
2023-04-15T04:51:34.486Z,91.70
2023-04-15T04:54:03.838Z,91.70
2023-04-15T04:56:31.907Z,92.10
2023-04-15T04:59:00.118Z,92.30
2023-04-15T05:01:28.572Z,91.80
2023-04-15T05:03:58.065Z,92.10
2023-04-15T05:06:26.152Z,93.00
2023-04-15T05:08:54.086Z,92.80
2023-04-15T05:11:22.046Z,92.80
2023-04-15T05:13:50.024Z,92.70
2023-04-15T05:16:18.530Z,92.90
2023-04-15T05:18:46.596Z,92.20
2023-04-15T05:21:16.165Z,92.20
2023-04-15T05:23:44.101Z,92.60
2023-04-15T05:26:12.038Z,92.30
2023-04-15T05:28:40.041Z,92.60
2023-04-15T05:31:08.761Z,92.60
2023-04-15T05:33:36.858Z,93.00
2023-04-15T05:36:05.036Z,93.10
2023-04-15T05:38:36.423Z,93.20
2023-04-15T05:41:04.937Z,93.00
2023-04-15T05:43:32.906Z,92.30
2023-04-15T05:46:00.915Z,92.50
2023-04-15T05:48:28.946Z,92.60
2023-04-15T05:50:56.931Z,92.80
2023-04-15T05:53:24.883Z,92.60
2023-04-15T05:55:54.189Z,92.60
2023-04-15T05:58:22.138Z,92.90
2023-04-15T06:00:50.156Z,92.40
2023-04-15T06:03:18.370Z,91.80
2023-04-15T06:05:46.361Z,91.70
2023-04-15T06:08:14.310Z,91.80
2023-04-15T06:10:42.321Z,91.30
2023-04-15T06:13:11.619Z,91.50
2023-04-15T06:15:39.721Z,91.70
2023-04-15T06:18:07.696Z,92.00
2023-04-15T06:20:36.787Z,91.40
2023-04-15T06:23:04.741Z,91.30
2023-04-15T06:25:32.683Z,91.30
2023-04-15T06:28:00.873Z,91.30
2023-04-15T06:30:30.295Z,91.30
2023-04-15T06:32:58.989Z,91.40
2023-04-15T06:35:27.542Z,91.60
2023-04-15T06:37:55.485Z,91.40
2023-04-15T06:40:23.508Z,91.20
2023-04-15T06:42:51.439Z,91.10
2023-04-15T06:45:19.506Z,90.70
2023-04-15T06:47:48.922Z,90.40
2023-04-15T06:50:17.039Z,90.50
2023-04-15T06:52:45.055Z,90.70
2023-04-15T06:55:13.268Z,90.70
2023-04-15T06:57:43.328Z,91.00
2023-04-15T07:00:12.783Z,91.00
2023-04-15T07:02:41.098Z,91.00
2023-04-15T07:05:11.079Z,90.90
2023-04-15T07:07:39.043Z,91.00
2023-04-15T07:10:08.315Z,90.70
2023-04-15T07:12:36.574Z,90.40
2023-04-15T07:15:05.098Z,90.30
2023-04-15T07:17:33.167Z,90.30
2023-04-15T07:20:01.127Z,90.20
2023-04-15T07:22:30.538Z,90.20
2023-04-15T07:24:58.488Z,90.00
2023-04-15T07:27:26.608Z,90.00
2023-04-15T07:29:54.633Z,88.80
2023-04-15T07:32:22.590Z,88.70
2023-04-15T07:34:50.574Z,88.50
2023-04-15T07:37:19.052Z,88.20
2023-04-15T07:39:49.070Z,88.30
2023-04-15T07:42:17.465Z,88.10
2023-04-15T07:44:45.600Z,88.00
2023-04-15T07:47:13.582Z,87.60
2023-04-15T07:49:43.299Z,86.30
2023-04-15T07:52:11.476Z,86.70
2023-04-15T07:54:39.874Z,86.70
2023-04-15T07:57:09.227Z,86.20
2023-04-15T07:59:37.233Z,85.50
2023-04-15T08:02:05.357Z,85.50
2023-04-15T08:04:34.143Z,86.10
2023-04-15T08:07:02.255Z,86.10
2023-04-15T08:09:30.646Z,85.70
2023-04-15T08:11:58.652Z,85.00
2023-04-15T08:14:28.036Z,84.70
2023-04-15T08:16:56.012Z,84.80
2023-04-15T08:19:24.281Z,85.20
2023-04-15T08:21:52.806Z,85.50
2023-04-15T08:24:21.378Z,85.70
2023-04-15T08:26:49.346Z,85.70
2023-04-15T08:29:17.455Z,84.50
2023-04-15T08:31:47.802Z,84.60
2023-04-15T08:34:16.682Z,83.80
2023-04-15T08:36:44.690Z,84.10
2023-04-15T08:39:12.704Z,83.80
2023-04-15T08:41:47.715Z,83.90
2023-04-15T08:44:16.248Z,84.00
2023-04-15T08:46:44.669Z,83.90
2023-04-15T08:49:14.572Z,84.30
2023-04-15T08:51:42.940Z,85.10
2023-04-15T08:54:11.669Z,84.60
2023-04-15T08:56:40.791Z,83.70
2023-04-15T08:59:09.869Z,82.80
2023-04-15T09:01:39.133Z,82.30
2023-04-15T09:04:08.201Z,82.50
2023-04-15T09:06:37.719Z,82.20
2023-04-15T09:09:05.670Z,82.10
2023-04-15T09:11:33.734Z,81.90
2023-04-15T09:14:01.745Z,81.40
2023-04-15T09:16:29.745Z,81.20
2023-04-15T09:18:57.763Z,79.90
2023-04-15T09:21:26.179Z,78.70
2023-04-15T09:24:00.078Z,78.00
2023-04-15T09:26:35.796Z,77.60
2023-04-15T09:29:08.193Z,77.30
2023-04-15T09:31:36.965Z,76.50
2023-04-15T09:34:05.246Z,76.10
2023-04-15T09:36:52.683Z,75.20
2023-04-15T09:39:22.493Z,75.00
2023-04-15T09:42:06.844Z,73.50
2023-04-15T09:44:35.224Z,74.20
2023-04-15T09:47:03.284Z,74.40
2023-04-15T09:49:31.340Z,73.50
2023-04-15T09:52:06.208Z,73.50
2023-04-15T09:54:37.616Z,74.00
2023-04-15T09:57:10.197Z,72.30
2023-04-15T09:59:38.560Z,71.00
2023-04-15T10:02:08.390Z,70.40
2023-04-15T10:04:39.271Z,70.00
2023-04-15T10:07:08.503Z,70.50
2023-04-15T10:09:40.259Z,69.20
2023-04-15T10:12:08.440Z,69.30
2023-04-15T10:14:39.044Z,67.70
2023-04-15T10:17:08.857Z,68.70
2023-04-15T10:19:38.982Z,68.90
2023-04-15T10:22:08.156Z,67.20
2023-04-15T10:24:36.454Z,65.30
2023-04-15T10:27:07.627Z,62.40
2023-04-15T10:29:35.960Z,61.40
2023-04-15T10:32:04.702Z,58.30
2023-04-15T10:34:33.344Z,57.70
2023-04-15T10:37:03.768Z,56.20
2023-04-15T10:39:45.245Z,55.90
2023-04-15T10:42:16.337Z,55.00
2023-04-15T10:44:47.982Z,53.40
2023-04-15T10:47:18.964Z,52.10
2023-04-15T10:49:49.222Z,52.20
2023-04-15T10:52:18.918Z,51.60
2023-04-15T10:54:47.620Z,51.10
2023-04-15T10:57:23.099Z,51.20
2023-04-15T11:00:04.632Z,49.00
2023-04-15T11:02:43.967Z,50.10
2023-04-15T11:05:12.624Z,50.70
2023-04-15T11:07:43.536Z,49.00
2023-04-15T11:10:48.314Z,48.20
2023-04-15T11:13:21.917Z,48.30
2023-04-15T11:15:50.418Z,47.20
2023-04-15T11:18:20.397Z,46.00
2023-04-15T11:20:50.598Z,46.20
2023-04-15T11:23:20.158Z,46.70
2023-04-15T11:25:48.690Z,44.90
2023-04-15T11:28:18.219Z,46.60
2023-04-15T11:30:48.322Z,46.30
2023-04-15T11:33:16.253Z,45.60
2023-04-15T11:35:44.309Z,46.20
2023-04-15T11:38:13.844Z,45.60
2023-04-15T11:40:45.345Z,45.40
2023-04-15T11:43:18.760Z,45.60
2023-04-15T11:45:52.747Z,46.10
2023-04-15T11:48:22.040Z,46.80
2023-04-15T11:50:55.524Z,45.70
2023-04-15T11:53:24.565Z,46.40
2023-04-15T11:55:54.965Z,44.80
2023-04-15T11:58:26.687Z,45.50
2023-04-15T12:00:56.492Z,45.60
2023-04-15T12:03:27.488Z,44.80
2023-04-15T12:06:16.441Z,45.30
2023-04-15T12:09:00.336Z,45.50
2023-04-15T12:11:37.101Z,45.90
2023-04-15T12:14:09.473Z,45.30
2023-04-15T12:16:48.488Z,46.20
2023-04-15T12:19:19.316Z,45.30
2023-04-15T12:21:49.050Z,44.40
2023-04-15T12:24:20.739Z,44.10
2023-04-15T12:26:50.952Z,44.90
2023-04-15T12:29:21.311Z,45.00
2023-04-15T12:31:51.669Z,44.80
2023-04-15T12:34:26.828Z,44.50
2023-04-15T12:36:55.205Z,45.70
2023-04-15T12:39:24.300Z,45.80
2023-04-15T12:41:52.459Z,44.90
2023-04-15T12:44:24.038Z,44.90
2023-04-15T12:46:53.017Z,45.30
2023-04-15T12:49:21.752Z,44.80
2023-04-15T12:51:51.044Z,43.30
2023-04-15T12:54:19.688Z,43.20
2023-04-15T12:56:48.423Z,44.50
2023-04-15T12:59:16.964Z,43.80
2023-04-15T13:01:46.639Z,44.30
2023-04-15T13:04:15.027Z,45.20
2023-04-15T13:06:43.160Z,44.10
2023-04-15T13:09:11.329Z,43.00
2023-04-15T13:11:39.511Z,43.20
2023-04-15T13:14:08.695Z,44.60
2023-04-15T13:16:37.092Z,44.30
2023-04-15T13:19:06.493Z,44.00
2023-04-15T13:21:36.178Z,44.70
2023-04-15T13:24:07.206Z,45.20
2023-04-15T13:26:36.088Z,45.20
2023-04-15T13:29:04.113Z,44.80
2023-04-15T13:31:32.097Z,44.40
2023-04-15T13:34:00.188Z,45.00
2023-04-15T13:36:29.537Z,45.10
2023-04-15T13:38:57.817Z,45.10
2023-04-15T13:41:25.967Z,45.30
2023-04-15T13:43:53.997Z,45.50
2023-04-15T13:46:22.198Z,45.80
2023-04-15T13:48:50.823Z,45.50
2023-04-15T13:51:18.797Z,44.80
2023-04-15T13:53:48.113Z,45.50
2023-04-15T13:56:16.113Z,46.60
2023-04-15T13:58:44.044Z,45.60
2023-04-15T14:01:12.191Z,46.40
2023-04-15T14:03:40.406Z,47.10
2023-04-15T14:06:08.644Z,46.90
2023-04-15T14:08:36.638Z,47.50
2023-04-15T14:11:06.073Z,47.60
2023-04-15T14:13:34.019Z,47.50
2023-04-15T14:16:02.047Z,47.10
2023-04-15T14:18:30.649Z,47.30
2023-04-15T14:20:58.596Z,47.10
2023-04-15T14:23:26.565Z,46.80
2023-04-15T14:25:54.813Z,46.90
2023-04-15T14:28:25.338Z,47.60
2023-04-15T14:30:53.508Z,47.50
2023-04-15T14:33:21.587Z,47.50
2023-04-15T14:35:50.313Z,47.20
2023-04-15T14:38:18.535Z,47.40
2023-04-15T14:40:46.541Z,47.00
2023-04-15T14:43:14.533Z,46.80
2023-04-15T14:45:45.425Z,46.90
2023-04-15T14:48:13.765Z,47.20
2023-04-15T14:50:41.826Z,47.70
2023-04-15T14:53:10.998Z,48.80
2023-04-15T14:55:39.022Z,48.30
2023-04-15T14:58:08.235Z,44.80
2023-04-15T15:00:39.228Z,44.70
2023-04-15T15:03:13.011Z,45.80
2023-04-15T15:05:41.456Z,45.40
2023-04-15T15:08:10.571Z,45.40
2023-04-15T15:10:49.139Z,45.90
2023-04-15T15:13:18.734Z,46.10
2023-04-15T15:15:49.289Z,45.70
2023-04-15T15:18:19.824Z,43.70
2023-04-15T15:20:47.970Z,43.60
2023-04-15T15:23:16.181Z,43.80
2023-04-15T15:25:44.586Z,42.50
2023-04-15T15:28:13.144Z,41.90
2023-04-15T15:30:41.260Z,42.70
2023-04-15T15:33:09.240Z,43.40
2023-04-15T15:35:38.675Z,42.60
2023-04-15T15:38:06.695Z,43.10
2023-04-15T15:40:34.650Z,42.80
2023-04-15T15:43:02.631Z,42.80
2023-04-15T15:45:30.976Z,43.10
2023-04-15T15:48:00.183Z,43.40
2023-04-15T15:50:28.366Z,43.70
2023-04-15T15:52:58.749Z,43.60
2023-04-15T15:55:27.316Z,43.70
2023-04-15T15:57:55.366Z,43.80
2023-04-15T16:00:23.831Z,44.10
2023-04-15T16:05:22.741Z,44.00
2023-04-15T16:07:50.919Z,44.30
2023-04-15T16:10:20.296Z,44.10
2023-04-15T16:12:48.259Z,44.00
2023-04-15T16:15:16.306Z,44.40
2023-04-15T16:17:44.314Z,45.00
2023-04-15T16:20:12.664Z,46.10
2023-04-15T16:22:40.706Z,46.30
2023-04-15T16:25:09.277Z,46.30
2023-04-15T16:30:11.687Z,45.40
2023-04-15T16:32:39.793Z,45.60
2023-04-15T16:35:08.714Z,46.20
2023-04-15T16:37:36.665Z,46.10
2023-04-15T16:40:05.125Z,45.50
2023-04-15T16:42:33.155Z,45.30
2023-04-15T16:45:02.454Z,46.20
2023-04-15T16:47:30.503Z,46.30
2023-04-15T16:49:58.544Z,46.20
2023-04-15T16:52:26.575Z,46.20
2023-04-15T16:54:54.566Z,46.70
2023-04-15T16:57:22.517Z,46.50
2023-04-15T16:59:52.790Z,46.90
2023-04-15T17:02:22.273Z,47.20
2023-04-15T17:04:50.329Z,47.40
2023-04-15T17:07:18.311Z,47.70
2023-04-15T17:09:46.226Z,48.30
2023-04-15T17:12:14.829Z,48.70
2023-04-15T17:14:42.820Z,48.70
2023-04-15T17:17:10.772Z,49.40
2023-04-15T17:19:40.187Z,49.60
2023-04-15T17:22:08.142Z,49.80
2023-04-15T17:24:36.555Z,49.80
2023-04-15T17:27:04.585Z,49.80
2023-04-15T17:29:32.659Z,50.50
2023-04-15T17:32:01.292Z,51.30
2023-04-15T17:34:50.713Z,51.80
2023-04-15T17:37:19.190Z,52.60
2023-04-15T17:39:47.166Z,53.50
2023-04-15T17:42:15.720Z,54.00
2023-04-15T17:44:43.708Z,54.40
2023-04-15T17:47:11.933Z,54.70
2023-04-15T17:49:39.985Z,55.00
2023-04-15T17:52:08.271Z,55.10
2023-04-15T17:54:37.564Z,56.00
2023-04-15T17:57:06.395Z,56.10
2023-04-15T17:59:34.720Z,56.10
2023-04-15T18:02:02.842Z,57.00
2023-04-15T18:04:31.230Z,57.30
2023-04-15T18:06:59.410Z,56.60
2023-04-15T18:09:28.486Z,57.80
2023-04-15T18:11:58.474Z,58.00
2023-04-15T18:14:34.331Z,57.80
2023-04-15T18:17:03.296Z,57.20
2023-04-15T18:19:31.793Z,57.20
2023-04-15T18:22:00.912Z,57.40
2023-04-15T18:24:29.341Z,58.10
2023-04-15T18:26:59.088Z,58.20
2023-04-15T18:29:27.159Z,58.20
2023-04-15T18:31:55.195Z,58.30
2023-04-15T18:34:23.156Z,58.70
2023-04-15T18:36:51.166Z,58.80
2023-04-15T18:39:19.110Z,58.70
2023-04-15T18:41:47.066Z,59.30
2023-04-15T18:44:16.385Z,61.30
2023-04-15T18:46:44.346Z,61.90
2023-04-15T18:49:13.243Z,63.80
2023-04-15T18:51:41.702Z,63.30
2023-04-15T18:54:09.636Z,63.40
2023-04-15T18:56:37.601Z,64.10
2023-04-15T18:59:23.011Z,64.20
2023-04-15T19:01:55.341Z,64.40
2023-04-15T19:04:23.542Z,64.50
2023-04-15T19:06:51.557Z,64.30
2023-04-15T19:09:19.488Z,60.90
2023-04-15T19:11:47.692Z,61.20
2023-04-15T19:14:15.721Z,63.80
2023-04-15T19:16:43.739Z,64.90
2023-04-15T19:19:14.534Z,65.10
2023-04-15T19:21:43.019Z,65.20
2023-04-15T19:24:11.511Z,65.90
2023-04-15T19:26:39.477Z,65.20
2023-04-15T19:29:07.761Z,65.20
2023-04-15T19:31:35.847Z,66.40
2023-04-15T19:34:03.799Z,66.80
2023-04-15T19:36:33.441Z,66.90
2023-04-15T19:39:01.929Z,67.20
2023-04-15T19:41:29.951Z,67.90
2023-04-15T19:43:57.938Z,66.50
2023-04-15T19:46:25.999Z,66.50
2023-04-15T19:48:54.278Z,66.60
2023-04-15T19:51:22.267Z,67.00
2023-04-15T19:53:53.947Z,68.50
2023-04-15T19:56:23.893Z,68.10
2023-04-15T19:58:53.084Z,68.10
2023-04-15T20:01:21.517Z,67.80
2023-04-15T20:03:49.866Z,68.90
2023-04-15T20:06:17.881Z,70.10
2023-04-15T20:08:45.893Z,68.80
2023-04-15T20:11:15.429Z,68.90
2023-04-15T20:13:43.397Z,70.20
2023-04-15T20:16:12.390Z,69.80
2023-04-15T20:18:40.385Z,67.80
2023-04-15T20:21:08.335Z,69.00
2023-04-15T20:23:36.987Z,71.80
2023-04-15T20:26:05.214Z,71.70
2023-04-15T20:28:34.776Z,70.10
2023-04-15T20:31:02.824Z,70.90
2023-04-15T20:33:30.903Z,72.10
2023-04-15T20:35:59.732Z,72.60
2023-04-15T20:38:27.703Z,72.40
2023-04-15T20:40:55.760Z,72.30
2023-04-15T20:43:24.288Z,72.40
2023-04-15T20:45:54.525Z,73.90
2023-04-15T20:48:22.826Z,74.10
2023-04-15T20:50:50.980Z,74.20
2023-04-15T20:53:18.976Z,74.90
2023-04-15T20:55:46.980Z,75.80
2023-04-15T20:58:14.957Z,77.30
2023-04-15T21:00:42.983Z,75.60
2023-04-15T21:03:13.876Z,73.60
2023-04-15T21:05:42.057Z,74.30
2023-04-15T21:08:09.989Z,74.40
2023-04-15T21:10:37.922Z,75.20
2023-04-15T21:13:06.724Z,74.60
2023-04-15T21:15:34.726Z,74.60
2023-04-15T21:18:02.672Z,75.20
2023-04-15T21:20:32.039Z,74.80
2023-04-15T21:22:59.978Z,73.70
2023-04-15T21:25:27.925Z,73.20
2023-04-15T21:27:55.884Z,72.60
2023-04-15T21:30:24.313Z,71.40
2023-04-15T21:32:52.353Z,70.80
2023-04-15T21:35:20.542Z,73.80
2023-04-15T21:37:49.886Z,74.60
2023-04-15T21:40:19.450Z,74.10
2023-04-15T21:42:48.877Z,74.00
2023-04-15T21:45:17.049Z,75.20
2023-04-15T21:47:56.799Z,77.20
2023-04-15T21:50:33.150Z,76.50
2023-04-15T21:53:02.517Z,77.30
2023-04-15T21:55:30.494Z,78.60
2023-04-15T21:57:58.452Z,77.90
2023-04-15T22:00:26.465Z,77.50
2023-04-15T22:02:54.707Z,77.40
2023-04-15T22:05:22.869Z,77.70
2023-04-15T22:07:51.060Z,80.00
2023-04-15T22:10:21.000Z,78.80
2023-04-15T22:12:48.984Z,76.90
2023-04-15T22:15:17.062Z,78.20
2023-04-15T22:17:45.022Z,79.70
2023-04-15T22:20:13.396Z,80.60
2023-04-15T22:22:44.030Z,80.30
2023-04-15T22:25:12.799Z,79.70
2023-04-15T22:27:42.110Z,77.90
2023-04-15T22:30:11.253Z,79.40
2023-04-15T22:32:39.294Z,78.90
2023-04-15T22:35:07.765Z,78.10
2023-04-15T22:37:35.802Z,76.90
2023-04-15T22:40:03.866Z,76.60
2023-04-15T22:42:31.813Z,77.70
2023-04-15T22:45:01.114Z,78.30
2023-04-15T22:47:29.125Z,78.30
2023-04-15T22:49:57.198Z,78.20
2023-04-15T22:52:30.716Z,76.60
2023-04-15T22:54:59.289Z,77.20
2023-04-15T22:57:27.938Z,77.60
2023-04-15T22:59:55.991Z,78.80
2023-04-15T23:02:25.532Z,79.50
2023-04-15T23:04:53.766Z,79.00
2023-04-15T23:07:21.829Z,78.80
2023-04-15T23:09:49.957Z,78.50
2023-04-15T23:12:18.023Z,77.90
2023-04-15T23:14:46.016Z,77.60
2023-04-15T23:17:13.986Z,77.40
2023-04-15T23:19:43.303Z,78.00
2023-04-15T23:22:12.185Z,78.50
2023-04-15T23:24:40.144Z,78.60
2023-04-15T23:27:08.127Z,78.80
2023-04-15T23:29:36.139Z,78.20
2023-04-15T23:32:04.173Z,78.20
2023-04-15T23:34:32.307Z,77.60
2023-04-15T23:37:01.692Z,79.40
2023-04-15T23:39:30.550Z,80.30
2023-04-15T23:41:58.567Z,80.50
2023-04-15T23:44:27.134Z,80.50
2023-04-15T23:46:55.123Z,80.80
2023-04-15T23:49:23.164Z,79.80
2023-04-15T23:51:51.197Z,80.70
2023-04-15T23:54:20.484Z,80.40
2023-04-15T23:56:48.408Z,79.70
2023-04-15T23:59:16.373Z,79.70
